FIMP/MRU METAR and TAF weather

Enter ICAO airport designator
Station Type Date Time Source
FIMP METAR 2020/01/20 16:00 UTC NOAA

FIMP 201600Z VRB01KT 9999 FEW018 SCT250 28/23 Q1007


Station Type Date Time Source
FIMP Decoded METAR 2020/01/20 16:00 UTC NOAA

Plaisance Mauritius , Mauritius (FIMP) 20-26S 057-40E 57M
Jan 20, 2020 - 11:00 AM EST / 2020.01.20 1600 UTC
Wind: Variable at 1 MPH (1 KT):0
Visibility: greater than 7 mile(s):0
Sky conditions: partly cloudy
Temperature: 82 F (28 C)
Dew Point: 73 F (23 C)
Relative Humidity: 74%
Pressure (altimeter): 29.74 in. Hg (1007 hPa)
ob: FIMP 201600Z VRB01KT 9999 FEW018 SCT250 28/23 Q1007
cycle: 16

Station Type Date Time Source
FIMP TAF 2020/01/20 12:45 UTC NOAA

TAF FIMP 201130Z 2012/2118 VRB03KT 9999 SCT015
TEMPO 2018/2103 7000 -SHRA FEW010 SCT015 BKN050 PROB30
TEMPO 2020/2100 3000 SHRA/TSRA FEW007 FEW013CB BKN014

Example: see airport list